Port Orford, OR

6:38 PM PDT on September 15, 2014 (GMT -0700)
Port Orford RV Village | Change Station
CLOSE
Current Station
Personal Weather Station
Location: Port Orford, OR
Elevation: 47 ft
Nearby Weather Stations

Elev 47 ft 42.76 °N, 124.49 °W | Updated 8 seconds ago

Overcast
Overcast
59.8 °F
Feels Like 59.8 °F
N
5.0
Wind Variable Wind from SE
Gusts 6.0 mph

Today
High -- | Low -- °F
--% Chance of Precip.
Yesterday
High -- | Low -- °F
Precip. -- in
6:57 AM 7:27 PM
Waning Gibbous, 50% visible
Pressure 29.92 in
Visibility 10.0 miles
Clouds Overcast 1200 ft
Dew Point 56 °F
Humidity 86%
Rainfall 0.00 in
Snow Depth Not available.
UV 0 out of 12
Pollen 4.30 out of 12
Air Quality Not available.
Flu Activity Not available.
METAR KOTH 160115Z 00000KT 10SM OVC012 14/13 A2992 RMK AO1

More Conditions Fewer Conditions

Pressure 29.92 in
Visibility 10.0 miles
Clouds Overcast 1200 ft
Dew Point 56 °F
Humidity 86%
Rainfall 0.00 in
Snow Depth Not available.
UV 0 out of 12
Pollen 4.30 out of 12
Air Quality Not available.
Flu Activity Not available.
METAR KOTH 160115Z 00000KT 10SM OVC012 14/13 A2992 RMK AO1

More Conditions Fewer Conditions

10-Day Weather Forecast

Almanac

Astronomy

Sep. 15, 2014 Rise Set
Actual Time 6:57 AM PDT 7:27 PM PDT
Civil Twilight 6:29 AM PDT 7:55 PM PDT
Nautical Twilight 5:55 AM PDT 8:29 PM PDT
Astronomical Twilight 5:21 AM PDT 9:03 PM PDT
Moon No Moon Rise 2:11 PM PDT (9/15)
Length of Visible Light 13h 26m
Length of Day
12h 29m
Tomorrow will be 2m 52s shorter.
Waning Gibbous, 50% of the Moon is Illuminated
Today
Waning Gibbous
Sep 15
Last Quarter
Sep 24
New
Oct 1
First Quarter
Oct 8
Full

Today's Extremes

State Highs State Lows

Community

WunderPhotos

Upload Photos

1,753,643 photos uploaded!

WunderBlogs® & News

Nearby

Snow Depth

Station Depth Elevation
Bigelow Camp 0 in 5120 ft
Fish Lake 0 in 4665 ft
Fourmile Lake 1 in 6000 ft
Sevenmile Marsh 0 in 6200 ft
Diamond Lake 0 in 5315 ft

Earthquake Activity

City Distance Mag. Time & Date
No recent earthquake activity has been reported nearby.
Minimum magnitude displayed is 2.5.

Coastal Water Temperatures

Place Temperature
Port Orford, OR 57.0 °F
Crescent City, CA 60.1 °F
Charleston, OR 51.1 °F

Nearby Weather Stations